LIPE Airport Information

Runway Information
Runway 12 Length 9196 ft width 148 ft
Elevation 120 ft Threshold 1007 ft Heading 117
Runway 30 Length 9196 ft Width 148 ft
Elevation 120 ft Threshold 1188 ft Heading 297
Airport Frequencies
Type APP Name APP Frequency 120.1 MHZ
Type ATIS Name ATIS Frequency 134.875 MHZ
Type GND Name GND Frequency 129.925 MHZ
Type TWR Name TWR Frequency 120.8 MHZ
Airport Navaids
Type VOR-DME Name Bologna Frequency 117100 KHZ
Type NDB Name Bologna Frequency 413 KHZ
Airport Weather Information & NOTAM
ADDS - METARS form results

(2140 UTC 12 September 2022)
Data provider http://aviationweather.gov/metar/data/
 
METAR text: LIPE 122120Z 18003KT CAVOK 21/14 Q1014
Conditions at: LIPE (BOLOGNA/BORGO (A, IT) observed 2120 UTC 12 September 2022
Temperature: 21.0°C (70°F)
Dewpoint: 14.0°C (57°F) [RH = 64%]
Pressure (altimeter): 29.94 inches Hg (1014.0 mb)
Winds: from the S (180 degrees) at 3 MPH (3 knots; 1.5 m/s)
Visibility: 6 or more miles (10+ km)
Ceiling: ceiling and visibility are OK
Clouds: unknown
Weather: no significant weather observed at this time

METAR text: LIPE 122050Z 10004KT 9999 FEW070 21/15 Q1014
Conditions at: LIPE (BOLOGNA/BORGO (A, IT) observed 2050 UTC 12 September 2022
Temperature: 21.0°C (70°F)
Dewpoint: 15.0°C (59°F) [RH = 69%]
Pressure (altimeter): 29.94 inches Hg (1014.0 mb)
Winds: from the E (100 degrees) at 5 MPH (4 knots; 2.1 m/s)
Visibility: 6 or more miles (10+ km)
Ceiling: at least 12,000 feet AGL
Clouds: few clouds at 7000 feet AGL
Weather: no significant weather observed at this time

Forecast for: LIPE (BOLOGNA/BORGO (A, IT)
Text: TAF LIPE 121700Z 1218/1318 VRB05KT CAVOK
Forecast period: 1800 UTC 12 September 2022 to 1800 UTC 13 September 2022
Forecast type: FROM: standard forecast or significant change
Winds: variable direction winds at 6 MPH (5 knots; 2.6 m/s)
Visibility: 6 or more miles (10+ km)
Ceiling: unknown
Clouds: missing
Weather: NSW  (no significant weather)